Accueil
METAR-TAF:

METAR-TAF

Aéroports :

Sabzevar, Iran

latitude: 36-13N, longitude: 057-40E, altitude: 941 m

Observation

Le bulletin a été fait il y a 38 minutes, à 14:00 UTC
Vent 10 kt de nord/nord-est
Température 2°C
Humidité 64%
Pression 1024 hPa
Visibilité 10 km ou plus
Nuages épars à une hauteur de 3000 ft
Ciel couvert à une hauteur de 10000 ft

METAR: OIMS 291400Z 02010KT 9999 SCT030 OVC100 02/M04 Q1024

Heure: 18:08 (14:38 UTC)


TAF: absent

Observations et prévisions météorologiques de plus de 4000 aéroports (messages METAR et TAF).

Les stations disponibles sont représentées par des disques jaunes et rouges sur la carte.

Passer la souris dessus pour voir le nom de la station.

Cliquer dessus pour voir les observations et prévisions météorologiques.

Pour changer de carte: cliquez sur les boutons verts avec une croix noire pour zoomer, sur le bouton vert avec un tiret pour effectuer un zoom arrière, ou sur les flèches vertes pour les cartes adjacentes.


METAR-TAF: